Time;durP1;ratioP1;P1;durP2;ratioP2;P2;SDS_P1;SDS_P2;PMS_P1;PMS_P2;Temp;Humidity;BMP_temperature;BMP_pressure;BME280_temperature;BME280_humidity;BME280_pressure;Samples;Min_cycle;Max_cycle;Signal;HPM_P1;HPM_P2
2022/10/19 00:01:19;;;;;;;8.10;2.20;;;;;;;11.91;69.02;99028.09;4868502;29;20044;-93
2022/10/19 00:03:48;;;;;;;9.98;2.15;;;;;;;11.91;68.79;99020.69;4868541;29;20048;-95
2022/10/19 00:06:27;;;;;;;9.82;2.33;;;;;;;11.74;68.72;99010.56;4868250;29;20127;-96
2022/10/19 00:08:58;;;;;;;8.35;2.20;;;;;;;11.89;68.69;99025.72;4867949;29;20037;-94
2022/10/19 00:11:25;;;;;;;3.90;1.90;;;;;;;11.67;68.86;98991.13;4867806;29;20037;-94
2022/10/19 00:13:53;;;;;;;5.88;1.95;;;;;;;11.90;69.33;99018.28;4867882;29;20052;-92
2022/10/19 00:16:20;;;;;;;5.22;2.20;;;;;;;11.66;69.13;98978.56;4866968;29;20044;-94
2022/10/19 00:18:46;;;;;;;5.30;2.10;;;;;;;11.49;69.12;98946.59;4867802;29;20115;-95
2022/10/19 00:21:15;;;;;;;7.03;2.67;;;;;;;11.74;69.38;98990.59;4867913;29;20057;-93
2022/10/19 00:23:44;;;;;;;6.80;2.13;;;;;;;11.77;68.73;98971.59;4867747;29;20143;-95
2022/10/19 00:26:11;;;;;;;5.25;2.30;;;;;;;11.72;69.08;98949.88;4867811;29;20104;-92
2022/10/19 00:28:37;;;;;;;8.05;2.40;;;;;;;11.89;69.04;98976.41;4868119;29;20052;-94
2022/10/19 00:31:09;;;;;;;7.17;3.17;;;;;;;11.66;69.33;98939.44;4868132;29;20092;-94
2022/10/19 00:33:36;;;;;;;4.82;2.17;;;;;;;11.76;69.25;98960.97;4867730;29;20041;-95
2022/10/19 00:36:03;;;;;;;5.35;2.30;;;;;;;11.54;69.65;98931.91;4867775;29;20036;-94
2022/10/19 00:38:29;;;;;;;5.53;2.10;;;;;;;11.81;69.65;98979.16;4883237;29;20056;-95
2022/10/19 00:40:56;;;;;;;11.10;2.58;;;;;;;11.80;69.74;98972.06;4852524;29;20037;-95
2022/10/19 00:43:25;;;;;;;7.07;2.30;;;;;;;11.49;69.32;98916.50;4868307;29;20044;-95
2022/10/19 00:45:51;;;;;;;9.25;2.28;;;;;;;11.65;69.38;98952.31;4867625;29;20070;-92
2022/10/19 00:48:30;;;;;;;6.60;2.50;;;;;;;11.59;69.47;98944.59;4867228;29;20050;-93
2022/10/19 00:50:58;;;;;;;4.65;2.42;;;;;;;11.62;69.66;98942.03;4852100;29;20056;-95
2022/10/19 00:53:28;;;;;;;5.00;2.30;;;;;;;11.44;69.43;98905.72;4867767;29;20067;-93
2022/10/19 00:55:56;;;;;;;6.20;2.78;;;;;;;11.41;69.45;98906.34;4854099;29;20451;-94
2022/10/19 00:58:23;;;;;;;8.35;2.78;;;;;;;11.55;69.50;98938.19;4851699;29;20089;-94
2022/10/19 01:00:49;;;;;;;9.32;2.80;;;;;;;11.35;70.19;98909.59;4867176;29;20048;-94
2022/10/19 01:03:15;;;;;;;12.45;2.38;;;;;;;11.59;70.02;98944.59;4866963;29;20067;-93
2022/10/19 01:05:42;;;;;;;5.72;2.67;;;;;;;11.32;70.08;98913.78;4866581;29;20052;-91
2022/10/19 01:08:10;;;;;;;5.90;2.67;;;;;;;11.39;70.13;98932.44;4851676;29;20028;-92
2022/10/19 01:10:58;;;;;;;5.82;2.85;;;;;;;11.58;70.13;98971.19;4851148;29;20044;-94
2022/10/19 01:13:52;;;;;;;5.18;2.90;;;;;;;11.38;70.56;98939.06;4866864;29;20040;-94
2022/10/19 01:16:49;;;;;;;4.93;2.53;;;;;;;11.30;70.67;98929.75;4842147;29;20566;-95
2022/10/19 01:19:53;;;;;;;6.25;2.88;;;;;;;11.57;70.55;98966.84;4866515;29;20044;-94
2022/10/19 01:22:38;;;;;;;7.43;2.45;;;;;;;11.60;70.63;98959.91;4866522;29;20095;-91
2022/10/19 01:25:48;;;;;;;13.70;3.38;;;;;;;11.61;70.64;98956.84;4866648;29;20510;-93
2022/10/19 01:28:55;;;;;;;5.90;2.92;;;;;;;11.59;70.39;98939.94;4866689;29;20048;-91
2022/10/19 01:31:44;;;;;;;5.93;2.60;;;;;;;11.71;70.18;98963.88;4866768;29;20515;-93
2022/10/19 01:34:38;;;;;;;9.95;2.70;;;;;;;11.54;70.82;98948.34;4882172;29;20107;-93
2022/10/19 01:37:22;;;;;;;7.93;2.90;;;;;;;11.74;70.40;98974.19;4865999;29;20056;-95
2022/10/19 01:40:00;;;;;;;6.72;2.75;;;;;;;11.59;70.37;98942.69;4866312;29;20044;-95
2022/10/19 01:42:45;;;;;;;4.68;2.85;;;;;;;11.69;70.11;98949.75;4866788;29;20040;-95
2022/10/19 01:45:38;;;;;;;10.27;2.72;;;;;;;11.71;70.17;98942.78;4866159;29;20048;-93
2022/10/19 01:48:21;;;;;;;10.93;2.50;;;;;;;11.79;70.49;98938.41;4850797;29;20143;-93
2022/10/19 01:50:53;;;;;;;4.95;2.60;;;;;;;11.61;70.51;98899.34;4851130;29;20510;-93
2022/10/19 01:53:20;;;;;;;5.45;2.67;;;;;;;11.82;70.37;98923.22;4850961;29;20044;-95
2022/10/19 01:55:49;;;;;;;;;;;;;;;11.82;70.82;98915.84;4851390;29;20036;-95
2022/10/19 01:58:20;;;;;;;8.48;2.90;;;;;;;11.55;70.54;98867.81;4866293;29;19923;-93
2022/10/19 02:00:50;;;;;;;7.57;3.05;;;;;;;11.82;70.36;98896.69;4851026;29;20506;-92
2022/10/19 02:03:17;;;;;;;6.53;2.78;;;;;;;11.58;70.03;98844.47;4866245;29;20503;-93
2022/10/19 02:05:46;;;;;;;8.85;3.50;;;;;;;11.85;70.07;98887.81;4866387;29;20056;-95
2022/10/19 02:08:43;;;;;;;7.07;4.32;;;;;;;11.70;70.03;98864.50;4851164;29;20599;-94
2022/10/19 02:11:09;;;;;;;7.43;3.92;;;;;;;11.56;70.02;98841.25;4865744;29;20041;-94
2022/10/19 02:13:38;;;;;;;10.77;3.70;;;;;;;11.52;70.23;98836.44;4866114;29;20047;-95
2022/10/19 02:16:10;;;;;;;7.22;3.33;;;;;;;11.53;70.14;98827.09;4865942;29;20072;-91
2022/10/19 02:18:41;;;;;;;5.50;2.97;;;;;;;11.31;70.45;98786.34;4850695;29;20140;-94
2022/10/19 02:21:08;;;;;;;7.72;3.35;;;;;;;11.68;70.51;98855.03;4866371;29;20092;-95
2022/10/19 02:23:34;;;;;;;6.82;3.63;;;;;;;11.64;71.00;98859.56;4866078;29;20076;-95
2022/10/19 02:26:01;;;;;;;6.95;3.72;;;;;;;11.51;70.85;98842.25;4865984;29;20080;-93
2022/10/19 02:28:28;;;;;;;9.45;4.25;;;;;;;11.38;70.88;98837.81;4865975;29;20127;-94
2022/10/19 02:30:55;;;;;;;9.70;4.20;;;;;;;11.52;70.83;98858.34;4866533;29;20111;-92
2022/10/19 02:33:22;;;;;;;8.02;4.25;;;;;;;11.21;71.08;98823.06;4850598;29;20045;-92
2022/10/19 02:35:48;;;;;;;7.57;3.72;;;;;;;11.27;71.48;98813.56;4850343;29;20071;-92
2022/10/19 02:38:18;;;;;;;11.37;3.67;;;;;;;11.43;71.54;98827.47;4847739;29;20049;-94
2022/10/19 02:41:12;;;;;;;7.35;3.72;;;;;;;11.47;71.77;98822.94;4848969;29;20306;-95
2022/10/19 02:43:42;;;;;;;7.30;4.13;;;;;;;11.49;71.47;98814.41;4843455;29;20141;-93
2022/10/19 02:46:17;;;;;;;9.88;4.40;;;;;;;11.68;71.17;98844.06;4880984;29;20037;-87
2022/10/19 02:48:43;;;;;;;11.00;4.10;;;;;;;11.54;71.86;98830.63;4879935;29;20112;-89
2022/10/19 02:51:54;;;;;;;12.45;5.15;;;;;;;11.75;71.57;98839.69;4881415;29;20068;-89
2022/10/19 02:54:20;;;;;;;15.95;5.20;;;;;;;11.72;71.55;98850.47;4880563;29;20055;-92
2022/10/19 02:56:46;;;;;;;18.38;5.50;;;;;;;11.56;71.64;98825.63;4864849;29;20044;-89
2022/10/19 02:59:12;;;;;;;14.93;5.45;;;;;;;11.60;71.92;98829.31;4864639;29;20048;-89
2022/10/19 03:01:39;;;;;;;15.20;6.10;;;;;;;11.58;72.02;98820.63;4864861;29;20047;-89
2022/10/19 03:04:05;;;;;;;14.45;5.72;;;;;;;11.42;71.87;98804.00;4864598;29;20052;-89
2022/10/19 03:06:31;;;;;;;16.63;7.05;;;;;;;11.39;71.97;98785.50;4848931;29;20045;-90
2022/10/19 03:08:57;;;;;;;15.85;6.93;;;;;;;11.46;72.17;98795.91;4864433;29;20052;-89
2022/10/19 03:11:23;;;;;;;14.52;6.40;;;;;;;11.47;71.95;98802.97;4880066;29;20411;-92
2022/10/19 03:13:49;;;;;;;19.67;6.72;;;;;;;11.34;72.12;98780.19;4880122;29;20044;-88
2022/10/19 03:16:15;;;;;;;17.17;6.20;;;;;;;11.59;72.07;98810.47;4881350;29;20041;-89
2022/10/19 03:18:41;;;;;;;16.58;6.25;;;;;;;11.65;72.29;98817.34;4881203;29;20077;-91
2022/10/19 03:21:11;;;;;;;16.30;7.13;;;;;;;11.63;72.58;98803.22;4864111;29;20124;-92
2022/10/19 03:23:38;;;;;;;12.48;5.47;;;;;;;11.73;72.51;98822.78;4880219;29;20036;-89
2022/10/19 03:26:05;;;;;;;13.30;5.80;;;;;;;11.63;72.41;98808.69;4864377;29;20041;-89
2022/10/19 03:28:31;;;;;;;10.15;5.38;;;;;;;11.66;72.43;98808.03;4864042;29;20136;-88
2022/10/19 03:30:58;;;;;;;14.48;5.43;;;;;;;11.62;72.52;98812.53;4864571;29;20109;-90
2022/10/19 03:33:24;;;;;;;19.30;7.60;;;;;;;11.63;72.26;98814.16;4879779;29;20041;-89
2022/10/19 03:36:10;;;;;;;16.83;9.30;;;;;;;11.38;72.07;98775.66;4880500;29;20140;-88
2022/10/19 03:38:36;;;;;;;19.85;9.68;;;;;;;11.20;72.06;98749.56;4863725;29;20061;-88
2022/10/19 03:41:05;;;;;;;18.42;9.05;;;;;;;11.29;72.00;98772.16;4879378;29;20044;-88
2022/10/19 03:43:31;;;;;;;17.85;9.43;;;;;;;11.32;72.13;98781.66;4879183;29;20047;-93
2022/10/19 03:45:57;;;;;;;14.32;7.97;;;;;;;11.25;72.42;98782.16;4863795;29;20443;-88
2022/10/19 03:48:23;;;;;;;17.25;8.35;;;;;;;11.20;72.66;98794.13;4879290;29;20049;-88
2022/10/19 03:51:05;;;;;;;16.95;7.35;;;;;;;11.03;73.28;98780.53;4880058;29;20085;-88
2022/10/19 03:53:31;;;;;;;23.08;7.20;;;;;;;10.81;73.38;98756.97;4879521;29;20049;-91
2022/10/19 03:56:06;;;;;;;14.20;7.35;;;;;;;10.81;73.56;98757.78;4880106;29;20172;-92
2022/10/19 03:58:34;;;;;;;18.00;7.45;;;;;;;10.93;73.88;98765.28;4880058;29;20144;-91
2022/10/19 04:01:01;;;;;;;19.13;6.90;;;;;;;10.97;73.84;98774.44;4878653;29;20439;-88
2022/10/19 04:03:27;;;;;;;16.88;6.88;;;;;;;10.87;73.74;98750.19;4878527;29;20053;-88
2022/10/19 04:06:04;;;;;;;11.07;6.28;;;;;;;10.79;74.07;98737.34;4894592;29;20089;-87
2022/10/19 04:08:30;;;;;;;20.48;6.70;;;;;;;11.04;73.92;98760.25;4894319;29;20067;-90
2022/10/19 04:11:06;;;;;;;20.17;9.43;;;;;;;10.93;74.52;98759.03;4879968;29;20045;-80
2022/10/19 04:13:33;;;;;;;23.45;10.45;;;;;;;11.01;74.42;98761.69;4879895;29;20093;-80
2022/10/19 04:15:59;;;;;;;30.00;13.50;;;;;;;10.96;74.16;98750.97;4878300;29;20045;-79
2022/10/19 04:18:26;;;;;;;36.55;12.35;;;;;;;11.00;74.33;98751.09;4879636;29;20044;-76
2022/10/19 04:21:00;;;;;;;29.70;12.70;;;;;;;11.08;74.34;98761.19;4879390;29;20127;-76
2022/10/19 04:23:29;;;;;;;25.00;10.35;;;;;;;11.10;74.12;98755.41;4879279;29;20040;-75
2022/10/19 04:26:03;;;;;;;31.55;9.55;;;;;;;11.09;73.71;98754.56;4879476;29;20104;-76
2022/10/19 04:28:30;;;;;;;23.50;8.18;;;;;;;11.09;73.82;98761.97;4879152;29;20531;-76
2022/10/19 04:30:56;;;;;;;18.27;7.75;;;;;;;11.05;74.17;98754.44;4879324;29;20444;-76
2022/10/19 04:33:22;;;;;;;17.92;6.45;;;;;;;11.04;73.70;98744.63;4879356;29;20128;-76
2022/10/19 04:35:48;;;;;;;20.73;6.27;;;;;;;11.05;73.85;98734.50;4878773;29;20092;-76
2022/10/19 04:38:14;;;;;;;13.00;6.22;;;;;;;10.95;73.60;98726.66;4906384;29;20060;-86
2022/10/19 04:40:40;;;;;;;17.40;7.18;;;;;;;10.92;73.72;98735.53;4916133;29;20044;-85
2022/10/19 04:43:06;;;;;;;24.70;10.02;;;;;;;10.80;74.28;98734.31;4916476;29;20047;-85
2022/10/19 04:45:34;;;;;;;16.65;7.70;;;;;;;10.77;74.44;98747.81;4916289;29;20130;-80
2022/10/19 04:48:01;;;;;;;16.63;8.70;;;;;;;10.78;74.15;98752.16;4916591;29;20646;-77
2022/10/19 04:50:27;;;;;;;14.30;8.77;;;;;;;10.68;74.29;98742.38;4916510;29;20055;-80
2022/10/19 04:52:55;;;;;;;18.85;9.60;;;;;;;10.57;74.42;98730.22;4916474;29;20458;-77
2022/10/19 04:55:21;;;;;;;21.40;9.60;;;;;;;10.53;74.48;98749.19;4916170;29;20498;-77
2022/10/19 04:57:47;;;;;;;19.23;10.07;;;;;;;10.54;74.18;98744.53;4916378;29;20048;-80
2022/10/19 05:00:14;;;;;;;21.92;10.43;;;;;;;10.38;75.19;98727.06;4899226;29;20103;-80
2022/10/19 05:02:44;;;;;;;17.85;10.80;;;;;;;10.43;75.19;98735.91;4915448;29;20490;-81
2022/10/19 05:05:14;;;;;;;17.67;10.20;;;;;;;10.48;74.55;98732.97;4916197;29;20040;-82
2022/10/19 05:07:40;;;;;;;18.10;11.27;;;;;;;10.42;74.51;98715.13;4899024;29;20059;-82
2022/10/19 05:10:08;;;;;;;20.30;11.27;;;;;;;10.54;74.41;98733.59;4916085;29;20044;-81
2022/10/19 05:12:35;;;;;;;20.75;11.27;;;;;;;10.58;73.92;98734.53;4915929;29;20036;-81
2022/10/19 05:15:02;;;;;;;20.33;10.27;;;;;;;10.57;73.78;98727.50;4916235;29;20044;-79
2022/10/19 05:17:31;;;;;;;20.17;9.30;;;;;;;10.61;73.73;98733.91;4916078;29;20040;-80
2022/10/19 05:19:57;;;;;;;13.15;8.40;;;;;;;10.52;73.24;98722.97;4915728;29;20568;-81
2022/10/19 05:22:24;;;;;;;16.05;9.15;;;;;;;10.56;73.56;98726.69;4898920;29;20413;-80
2022/10/19 05:24:50;;;;;;;17.15;8.65;;;;;;;10.54;73.38;98730.88;4915801;29;20044;-79
2022/10/19 05:27:16;;;;;;;17.88;8.00;;;;;;;10.43;73.71;98714.03;4915846;29;20502;-79
2022/10/19 05:29:42;;;;;;;15.23;8.00;;;;;;;10.44;73.80;98718.38;4915695;29;20040;-79
2022/10/19 05:32:08;;;;;;;18.85;8.77;;;;;;;10.40;73.75;98730.25;4914628;29;20048;-79
2022/10/19 05:34:34;;;;;;;18.25;8.95;;;;;;;10.40;74.42;98703.75;4915574;29;20032;-79
2022/10/19 05:37:00;;;;;;;14.25;8.30;;;;;;;10.45;73.99;98716.44;4915169;29;20536;-79
2022/10/19 05:39:26;;;;;;;15.48;8.23;;;;;;;10.44;74.05;98721.09;4915406;29;20414;-80
2022/10/19 05:41:52;;;;;;;17.45;9.00;;;;;;;10.47;74.08;98728.66;4915802;29;20060;-79
2022/10/19 05:44:21;;;;;;;17.73;8.73;;;;;;;10.48;74.18;98732.97;4915918;29;20044;-80
2022/10/19 05:46:48;;;;;;;14.88;8.48;;;;;;;10.52;74.17;98722.19;4915560;29;20041;-79
2022/10/19 05:49:17;;;;;;;13.93;8.23;;;;;;;10.57;73.98;98722.81;4915774;29;20091;-79
2022/10/19 05:51:43;;;;;;;17.33;8.57;;;;;;;10.62;73.62;98727.28;4915291;29;20130;-79
2022/10/19 05:54:10;;;;;;;18.85;8.57;;;;;;;10.61;73.64;98724.91;4915473;29;20052;-81
2022/10/19 05:56:36;;;;;;;19.75;8.35;;;;;;;10.62;73.59;98710.91;4915762;29;20057;-91
2022/10/19 05:59:05;;;;;;;12.60;7.95;;;;;;;10.65;74.00;98709.44;4915873;29;20115;-78
2022/10/19 06:01:32;;;;;;;16.23;8.55;;;;;;;10.58;74.16;98705.28;4915233;29;20590;-78
2022/10/19 06:03:59;;;;;;;15.75;8.25;;;;;;;10.67;73.91;98702.53;4915108;29;20040;-78
2022/10/19 06:06:26;;;;;;;;;;;;;;;10.63;73.50;98706.22;4915568;29;20574;-78
2022/10/19 06:08:54;;;;;;;14.82;8.13;;;;;;;10.54;74.16;98696.13;4915268;29;19947;-80
2022/10/19 06:11:26;;;;;;;12.50;8.63;;;;;;;10.57;73.93;98706.41;4915568;29;20040;-80
2022/10/19 06:13:54;;;;;;;16.27;9.40;;;;;;;10.49;73.75;98711.91;4915426;29;20044;-79
2022/10/19 06:16:22;;;;;;;17.58;8.68;;;;;;;10.48;73.91;98700.19;4918353;29;20046;-80
2022/10/19 06:18:49;;;;;;;13.60;8.60;;;;;;;10.48;74.10;98711.09;4919056;29;20087;-80
2022/10/19 06:21:18;;;;;;;19.05;9.75;;;;;;;10.45;74.08;98700.84;4919328;29;20064;-79
2022/10/19 06:23:48;;;;;;;17.67;8.52;;;;;;;10.43;73.52;98697.63;4918998;29;20046;-78
2022/10/19 06:26:14;;;;;;;16.95;9.02;;;;;;;10.43;74.39;98692.19;4918993;29;20048;-80
2022/10/19 06:28:42;;;;;;;18.10;8.43;;;;;;;10.47;74.25;98690.38;4902125;29;20063;-81
2022/10/19 06:31:08;;;;;;;16.23;8.77;;;;;;;10.42;73.61;98690.56;4918787;29;20044;-80
2022/10/19 06:33:34;;;;;;;15.20;8.80;;;;;;;10.42;73.54;98697.94;4919124;29;20048;-81
2022/10/19 06:36:13;;;;;;;20.63;9.32;;;;;;;10.40;74.39;98692.81;4918778;29;20489;-80
2022/10/19 06:38:40;;;;;;;17.38;8.48;;;;;;;10.33;74.52;98700.69;4918562;29;20059;-79
2022/10/19 06:41:07;;;;;;;;;;;;;;;10.39;74.15;98695.88;4902116;29;20127;-80
2022/10/19 06:43:33;;;;;;;16.70;7.45;;;;;;;10.41;74.31;98699.09;4918762;29;19923;-79
2022/10/19 06:46:06;;;;;;;11.50;6.95;;;;;;;10.38;73.74;98684.16;4918611;29;20532;-80
2022/10/19 06:48:32;;;;;;;16.90;8.27;;;;;;;10.40;73.53;98692.81;4918489;29;20506;-80
2022/10/19 06:51:00;;;;;;;16.23;7.93;;;;;;;10.37;73.85;98693.47;4918755;29;20055;-79
2022/10/19 06:53:28;;;;;;;16.90;8.00;;;;;;;10.46;74.00;98697.00;4918728;29;20453;-79
2022/10/19 06:56:02;;;;;;;10.15;6.55;;;;;;;10.40;73.30;98689.28;4918280;29;20044;-80
2022/10/19 06:58:29;;;;;;;11.50;6.18;;;;;;;10.34;73.56;98680.47;4918425;29;20051;-81
2022/10/19 07:01:00;;;;;;;10.98;6.68;;;;;;;10.35;73.25;98685.59;4918662;29;20055;-83
2022/10/19 07:03:28;;;;;;;15.50;7.05;;;;;;;10.34;73.64;98688.66;4918650;29;20037;-82
2022/10/19 07:05:57;;;;;;;9.20;5.55;;;;;;;10.32;73.04;98680.78;4918552;29;20051;-81
2022/10/19 07:08:24;;;;;;;17.10;6.85;;;;;;;10.26;73.39;98676.63;4901361;29;20036;-83
2022/10/19 07:10:57;;;;;;;13.30;5.65;;;;;;;10.31;73.56;98675.66;4918518;29;20058;-81
2022/10/19 07:13:24;;;;;;;11.07;6.13;;;;;;;10.27;72.36;98671.97;4911961;29;20032;-82
2022/10/19 07:16:01;;;;;;;13.10;5.43;;;;;;;10.26;72.70;98665.69;4898959;29;20067;-81
2022/10/19 07:18:27;;;;;;;8.75;5.25;;;;;;;10.32;72.71;98669.06;4899407;29;20423;-81
2022/10/19 07:20:58;;;;;;;8.88;5.20;;;;;;;10.35;72.36;98663.75;4899045;29;20211;-82
2022/10/19 07:23:26;;;;;;;13.45;5.68;;;;;;;10.37;72.34;98673.56;4899029;29;20511;-82
2022/10/19 07:25:54;;;;;;;259.83;20.75;;;;;;;10.29;72.00;98666.97;4881718;29;20392;-82
2022/10/19 07:28:21;;;;;;;21.05;10.85;;;;;;;10.24;71.21;98664.41;4897850;29;20045;-83
2022/10/19 07:30:47;;;;;;;14.60;6.32;;;;;;;10.25;71.69;98668.72;4898035;29;20545;-81
2022/10/19 07:33:13;;;;;;;17.90;6.65;;;;;;;10.39;72.15;98663.88;4897392;29;20518;-83
2022/10/19 07:35:39;;;;;;;11.77;7.40;;;;;;;10.27;71.58;98658.31;4880286;29;20056;-79
2022/10/19 07:38:05;;;;;;;14.80;6.78;;;;;;;10.26;72.27;98667.63;4896569;29;20431;-75
2022/10/19 07:40:31;;;;;;;13.60;7.35;;;;;;;10.32;72.42;98655.41;4880118;29;20053;-76
2022/10/19 07:42:57;;;;;;;103.18;12.85;;;;;;;10.27;71.56;98652.88;4898612;29;20131;-88
2022/10/19 07:45:23;;;;;;;15.05;6.90;;;;;;;10.26;71.94;98653.97;4898958;29;20135;-77
2022/10/19 07:47:49;;;;;;;29.50;9.20;;;;;;;10.27;72.14;98663.78;4898700;29;20048;-77
2022/10/19 07:50:17;;;;;;;22.23;8.82;;;;;;;10.24;73.05;98650.75;4880881;29;20417;-77
2022/10/19 07:52:43;;;;;;;61.95;9.65;;;;;;;10.31;72.70;98657.34;4892471;29;20455;-78
2022/10/19 07:55:09;;;;;;;16.95;6.65;;;;;;;10.31;73.06;98651.06;4895532;29;20055;-77
2022/10/19 07:57:35;;;;;;;27.77;7.15;;;;;;;10.26;72.87;98654.75;4898252;29;20056;-83
2022/10/19 08:00:01;;;;;;;16.02;6.38;;;;;;;10.29;71.57;98662.31;4897966;29;20553;-77
2022/10/19 08:02:39;;;;;;;9.48;5.90;;;;;;;10.22;72.98;98670.19;4894270;29;20051;-81
2022/10/19 08:05:06;;;;;;;14.32;6.97;;;;;;;10.25;73.04;98664.06;4882394;29;20041;-80
2022/10/19 08:07:33;;;;;;;12.33;7.00;;;;;;;10.21;72.96;98651.41;4890820;29;20053;-80
2022/10/19 08:09:59;;;;;;;45.97;9.68;;;;;;;10.25;73.20;98653.13;4897113;29;20811;-80
2022/10/19 08:12:25;;;;;;;16.73;8.05;;;;;;;10.34;73.07;98672.28;4898482;29;20176;-81
2022/10/19 08:14:53;;;;;;;10.37;7.10;;;;;;;10.38;72.45;98666.97;4879386;29;20072;-79
2022/10/19 08:17:19;;;;;;;14.00;6.82;;;;;;;10.38;72.52;98664.22;4895681;29;20924;-79
2022/10/19 08:19:45;;;;;;;11.25;7.70;;;;;;;10.35;72.29;98655.53;4892468;29;20044;-79
2022/10/19 08:22:12;;;;;;;12.85;7.93;;;;;;;10.36;72.75;98659.06;4878228;29;20055;-79
2022/10/19 08:24:38;;;;;;;14.23;7.63;;;;;;;10.37;72.05;98657.97;4880174;29;20048;-80
2022/10/19 08:27:04;;;;;;;21.23;7.32;;;;;;;10.46;71.85;98663.38;4898224;29;20063;-80
2022/10/19 08:29:30;;;;;;;35.73;8.50;;;;;;;10.52;71.66;98653.88;4896776;29;20056;-79
2022/10/19 08:31:56;;;;;;;24.00;8.13;;;;;;;10.55;71.30;98656.75;4893238;29;20052;-79
2022/10/19 08:34:23;;;;;;;13.10;8.10;;;;;;;10.55;71.47;98659.47;4888670;29;20048;-79
2022/10/19 08:36:49;;;;;;;28.87;8.50;;;;;;;10.66;71.41;98664.56;4893568;29;20401;-79
2022/10/19 08:39:16;;;;;;;16.45;9.60;;;;;;;10.67;71.90;98658.00;4877801;29;20472;-93
2022/10/19 08:41:51;;;;;;;16.70;8.27;;;;;;;10.63;71.55;98666.06;4898850;29;20648;-92
2022/10/19 08:44:55;;;;;;;25.92;8.73;;;;;;;10.67;71.47;98658.78;4881708;29;20075;-93
2022/10/19 08:47:51;;;;;;;14.05;8.63;;;;;;;10.68;71.74;98665.06;4890659;29;20139;-87
2022/10/19 08:50:34;;;;;;;18.97;8.87;;;;;;;10.62;72.54;98649.97;4881840;29;20049;-94
2022/10/19 08:53:07;;;;;;;25.92;9.20;;;;;;;10.79;72.21;98649.88;4896871;29;20048;-90
2022/10/19 08:55:40;;;;;;;21.30;9.27;;;;;;;10.65;72.61;98638.38;4895602;29;20055;-95
2022/10/19 08:58:20;;;;;;;19.48;8.40;;;;;;;10.74;73.60;98648.13;4897545;29;20048;-93
2022/10/19 09:01:07;;;;;;;14.02;8.73;;;;;;;10.80;73.12;98643.28;4898106;29;20044;-90
2022/10/19 09:03:49;;;;;;;16.02;8.00;;;;;;;10.79;71.92;98631.56;4883965;29;20047;-94
2022/10/19 09:06:26;;;;;;;17.52;8.88;;;;;;;10.57;72.96;98618.16;4899584;29;20055;-90
2022/10/19 09:08:53;;;;;;;;;;;;;;;10.66;73.36;98634.50;4897682;29;20404;-89
2022/10/19 09:11:26;;;;;;;13.13;5.97;;;;;;;10.49;72.74;98624.47;4896217;29;19923;-89
2022/10/19 09:14:07;;;;;;;13.18;6.90;;;;;;;10.57;73.60;98640.81;4895304;29;20045;-86
2022/10/19 09:16:34;;;;;;;14.70;6.85;;;;;;;10.71;72.96;98637.84;4889551;29;20060;-89
2022/10/19 09:19:00;;;;;;;37.30;6.85;;;;;;;10.62;72.89;98633.56;4895445;29;20056;-86
2022/10/19 09:21:42;;;;;;;15.95;6.32;;;;;;;10.65;73.09;98647.38;4896663;29;20096;-83
2022/10/19 09:24:28;;;;;;;12.60;6.07;;;;;;;10.58;72.69;98644.34;4897518;29;20041;-83
2022/10/19 09:26:58;;;;;;;17.30;5.75;;;;;;;10.65;72.85;98650.09;4892092;29;20127;-89
2022/10/19 09:29:24;;;;;;;46.72;8.88;;;;;;;10.68;72.95;98659.59;4894595;29;20132;-90
2022/10/19 09:31:55;;;;;;;12.75;5.75;;;;;;;10.57;72.52;98640.81;4878166;29;20144;-90
2022/10/19 09:34:47;;;;;;;10.63;5.28;;;;;;;10.64;72.72;98655.91;4895284;29;20497;-89
2022/10/19 09:37:13;;;;;;;17.77;6.45;;;;;;;10.63;72.63;98652.38;4878369;29;20060;-84
2022/10/19 09:39:39;;;;;;;11.43;5.97;;;;;;;10.63;73.36;98651.56;4862102;29;20112;-92
2022/10/19 09:42:24;;;;;;;17.63;7.55;;;;;;;10.72;73.59;98653.13;4892620;29;20292;-92
2022/10/19 09:44:51;;;;;;;16.63;10.90;;;;;;;10.68;73.18;98646.72;4882253;29;20422;-81
2022/10/19 09:47:41;;;;;;;17.42;11.75;;;;;;;10.78;72.50;98657.28;4877485;29;20127;-82
2022/10/19 09:50:24;;;;;;;15.35;10.65;;;;;;;10.74;73.20;98650.88;4875456;29;20049;-92
2022/10/19 09:53:04;;;;;;;15.52;8.98;;;;;;;10.58;73.34;98645.16;4900545;29;20055;-92
2022/10/19 09:55:37;;;;;;;17.55;7.43;;;;;;;10.62;73.36;98660.91;4854724;29;20049;-93
2022/10/19 09:58:12;;;;;;;12.57;6.85;;;;;;;10.69;72.98;98656.50;4878712;29;20055;-93
2022/10/19 10:00:44;;;;;;;11.05;7.00;;;;;;;10.46;73.36;98628.69;4875740;29;20051;-92
2022/10/19 10:03:24;;;;;;;15.35;8.48;;;;;;;10.69;73.81;98656.50;4867001;29;20036;-92
2022/10/19 10:05:52;;;;;;;12.40;6.57;;;;;;;10.22;73.38;98582.78;4865924;29;20040;-94
2022/10/19 10:08:24;;;;;;;12.65;6.22;;;;;;;10.75;74.27;98654.41;4849383;29;20052;-89
2022/10/19 10:10:59;;;;;;;12.93;6.32;;;;;;;10.73;74.54;98662.16;4874886;29;20048;-90
2022/10/19 10:13:26;;;;;;;11.07;6.20;;;;;;;10.52;74.21;98635.53;4877797;29;20072;-90
2022/10/19 10:16:02;;;;;;;12.70;6.68;;;;;;;10.76;74.13;98656.81;4880246;29;20517;-89
2022/10/19 10:18:30;;;;;;;8.88;6.20;;;;;;;10.80;74.07;98659.69;4880437;29;20463;-92
2022/10/19 10:21:00;;;;;;;;;;;;;;;10.79;74.12;98661.63;4886241;29;20518;-86
2022/10/19 10:23:30;;;;;;;9.68;6.15;;;;;;;10.56;74.19;98641.97;4847094;29;19923;-90
2022/10/19 10:25:59;;;;;;;9.38;5.82;;;;;;;10.72;74.02;98658.59;4860293;29;20144;-88
2022/10/19 10:28:29;;;;;;;10.43;6.35;;;;;;;10.64;74.22;98662.19;4893465;29;20080;-89
2022/10/19 10:31:05;;;;;;;11.48;7.00;;;;;;;10.58;74.47;98668.97;4846731;29;20431;-90
2022/10/19 10:33:36;;;;;;;16.83;8.43;;;;;;;10.69;74.18;98666.66;4859924;29;20496;-89
2022/10/19 10:36:07;;;;;;;16.38;9.15;;;;;;;10.65;73.67;98657.50;4877812;29;20044;-89
2022/10/19 10:38:38;;;;;;;18.52;10.48;;;;;;;10.75;73.80;98668.88;4891702;29;20060;-89
2022/10/19 10:41:13;;;;;;;16.45;8.73;;;;;;;10.42;73.99;98624.19;4893638;29;20047;-89
2022/10/19 10:44:05;;;;;;;25.17;9.38;;;;;;;10.65;74.47;98660.25;4892628;29;20048;-89
2022/10/19 10:46:43;;;;;;;19.55;9.38;;;;;;;10.61;75.09;98654.63;4893878;29;20044;-89
2022/10/19 10:49:22;;;;;;;19.25;9.68;;;;;;;10.53;74.44;98637.16;4875599;29;20079;-86
2022/10/19 10:51:53;;;;;;;15.60;8.15;;;;;;;10.54;73.85;98638.75;4876877;29;20044;-86
2022/10/19 10:54:25;;;;;;;16.95;8.18;;;;;;;10.64;74.24;98659.44;4892955;29;20097;-90
2022/10/19 10:57:11;;;;;;;18.65;8.93;;;;;;;10.65;74.85;98676.63;4896456;29;20049;-90
2022/10/19 10:59:54;;;;;;;19.50;7.93;;;;;;;10.72;72.81;98675.00;4879385;29;20135;-88
2022/10/19 11:02:55;;;;;;;13.15;7.18;;;;;;;10.64;73.17;98678.56;4895507;29;20044;-88
2022/10/19 11:05:36;;;;;;;17.52;8.55;;;;;;;10.70;73.28;98669.06;4878849;29;20056;-86
2022/10/19 11:08:14;;;;;;;13.75;8.00;;;;;;;10.65;73.34;98671.19;4890387;29;20414;-89
2022/10/19 11:10:53;;;;;;;19.67;9.65;;;;;;;10.69;74.03;98674.84;4901984;29;20517;-92
2022/10/19 11:13:31;;;;;;;22.70;9.57;;;;;;;10.72;73.58;98669.53;4908122;29;20041;-86
2022/10/19 11:16:03;;;;;;;20.95;9.50;;;;;;;10.71;73.84;98669.88;4899964;29;20095;-86
2022/10/19 11:18:36;;;;;;;21.00;9.75;;;;;;;10.76;73.64;98661.47;4900813;29;20049;-88
2022/10/19 11:21:06;;;;;;;21.73;11.02;;;;;;;10.85;73.90;98670.41;4901435;29;20041;-86
2022/10/19 11:23:56;;;;;;;20.58;11.00;;;;;;;10.69;73.39;98645.56;4905664;29;20083;-88
2022/10/19 11:26:40;;;;;;;24.92;12.65;;;;;;;10.80;73.25;98659.69;4900975;29;20044;-92
2022/10/19 11:29:19;;;;;;;23.40;12.45;;;;;;;10.81;72.55;98648.41;4900858;29;20041;-91
2022/10/19 11:31:52;;;;;;;25.20;12.30;;;;;;;10.73;71.86;98649.28;4900488;29;20523;-91
2022/10/19 11:34:57;;;;;;;34.63;13.60;;;;;;;10.62;72.01;98647.22;4883753;29;20052;-91
2022/10/19 11:37:32;;;;;;;22.08;12.55;;;;;;;10.62;72.80;98658.97;4850949;29;20143;-91
2022/10/19 11:40:36;;;;;;;26.75;12.20;;;;;;;10.70;72.67;98663.59;4899279;29;20048;-85
2022/10/19 11:43:24;;;;;;;20.83;11.13;;;;;;;10.64;73.01;98651.25;4825860;29;20045;-84
2022/10/19 11:46:08;;;;;;;24.63;12.85;;;;;;;10.65;73.29;98657.50;4825375;29;20137;-83
2022/10/19 11:48:50;;;;;;;25.48;11.43;;;;;;;10.76;72.90;98645.88;4871803;29;20430;-83